Time;durP1;ratioP1;P1;durP2;ratioP2;P2;SDS_P1;SDS_P2;PMS_P1;PMS_P2;Temp;Humidity;BMP_temperature;BMP_pressure;BME280_temperature;BME280_humidity;BME280_pressure;Samples;Min_cycle;Max_cycle;Signal;HPM_P1;HPM_P2
2024/04/07 00:01:12;;;;;;;4.53;2.53;;;;;;;;;;5049797;28;20154;-88
2024/04/07 00:03:39;;;;;;;5.80;2.67;;;;;;;;;;5073330;28;20094;-89
2024/04/07 00:06:04;;;;;;;5.07;2.35;;;;;;;;;;5049096;28;20071;-88
2024/04/07 00:08:30;;;;;;;8.07;3.03;;;;;;;;;;5064475;28;20052;-88
2024/04/07 00:10:55;;;;;;;5.35;3.05;;;;;;;;;;5044904;28;20043;-89
2024/04/07 00:13:21;;;;;;;5.85;2.67;;;;;;;;;;5044856;28;20036;-89
2024/04/07 00:15:46;;;;;;;4.93;2.60;;;;;;;;;;5044165;28;20401;-89
2024/04/07 00:18:12;;;;;;;6.10;2.50;;;;;;;;;;5048932;28;20122;-89
2024/04/07 00:20:38;;;;;;;5.00;2.50;;;;;;;;;;5045251;28;20048;-89
2024/04/07 00:23:04;;;;;;;5.97;2.80;;;;;;;;;;5067859;28;20085;-88
2024/04/07 00:25:29;;;;;;;5.63;2.67;;;;;;;;;;5061461;28;20104;-85
2024/04/07 00:27:54;;;;;;;6.88;2.80;;;;;;;;;;5065783;28;20480;-85
2024/04/07 00:30:20;;;;;;;7.55;2.85;;;;;;;;;;5070005;28;20052;-86
2024/04/07 00:32:45;;;;;;;8.02;2.35;;;;;;;;;;5065210;28;20021;-85
2024/04/07 00:35:11;;;;;;;8.18;2.50;;;;;;;;;;5050394;28;20024;-85
2024/04/07 00:37:36;;;;;;;5.40;2.20;;;;;;;;;;5070848;28;20440;-85
2024/04/07 00:40:02;;;;;;;6.18;3.10;;;;;;;;;;5064314;28;20426;-85
2024/04/07 00:42:27;;;;;;;6.05;2.47;;;;;;;;;;5049591;28;20046;-85
2024/04/07 00:44:52;;;;;;;5.78;2.20;;;;;;;;;;5048293;28;20054;-85
2024/04/07 00:47:19;;;;;;;7.30;2.40;;;;;;;;;;5071238;28;20112;-85
2024/04/07 00:49:46;;;;;;;4.93;2.15;;;;;;;;;;5043130;28;20025;-85
2024/04/07 00:52:12;;;;;;;6.07;2.50;;;;;;;;;;5065408;28;20495;-85
2024/04/07 00:54:41;;;;;;;5.35;2.05;;;;;;;;;;5045454;28;20060;-85
2024/04/07 00:57:09;;;;;;;6.00;2.10;;;;;;;;;;5049456;28;20039;-84
2024/04/07 00:59:35;;;;;;;7.50;2.30;;;;;;;;;;5065296;28;20559;-85
2024/04/07 01:02:01;;;;;;;7.47;2.38;;;;;;;;;;5046678;28;20078;-85
2024/04/07 01:04:27;;;;;;;5.63;2.20;;;;;;;;;;5065635;28;20449;-85
2024/04/07 01:06:52;;;;;;;6.88;1.92;;;;;;;;;;5061511;28;20036;-85
2024/04/07 01:09:20;;;;;;;6.82;2.10;;;;;;;;;;5046236;28;20101;-85
2024/04/07 01:11:46;;;;;;;6.55;1.77;;;;;;;;;;5065138;28;20139;-85
2024/04/07 01:14:11;;;;;;;6.80;1.75;;;;;;;;;;5062452;28;20112;-85
2024/04/07 01:16:37;;;;;;;3.70;1.65;;;;;;;;;;5045308;28;20111;-85
2024/04/07 01:19:02;;;;;;;5.68;1.70;;;;;;;;;;5063598;28;20043;-84
2024/04/07 01:21:27;;;;;;;4.95;1.67;;;;;;;;;;5044601;28;20371;-85
2024/04/07 01:23:53;;;;;;;5.90;1.67;;;;;;;;;;5063651;28;20025;-85
2024/04/07 01:26:18;;;;;;;5.63;1.58;;;;;;;;;;5064917;28;20043;-85
2024/04/07 01:28:44;;;;;;;5.80;2.13;;;;;;;;;;5063626;28;20043;-85
2024/04/07 01:31:09;;;;;;;5.70;1.65;;;;;;;;;;5060927;28;20030;-85
2024/04/07 01:33:34;;;;;;;6.90;1.73;;;;;;;;;;5045216;28;20031;-84
2024/04/07 01:36:00;;;;;;;8.85;1.42;;;;;;;;;;5062851;28;20039;-89
2024/04/07 01:38:25;;;;;;;5.07;1.80;;;;;;;;;;5064223;28;20024;-89
2024/04/07 01:40:51;;;;;;;7.35;1.58;;;;;;;;;;5065701;28;20434;-89
2024/04/07 01:43:16;;;;;;;4.55;1.50;;;;;;;;;;5048699;28;20115;-89
2024/04/07 01:45:42;;;;;;;5.60;1.40;;;;;;;;;;5049223;28;20103;-89
2024/04/07 01:48:07;;;;;;;6.22;1.40;;;;;;;;;;5048568;28;20032;-88
2024/04/07 01:50:33;;;;;;;5.13;1.63;;;;;;;;;;5044766;28;20422;-90
2024/04/07 01:52:58;;;;;;;5.30;1.27;;;;;;;;;;5043658;28;20474;-90
2024/04/07 01:55:24;;;;;;;5.13;1.20;;;;;;;;;;5048568;28;20111;-89
2024/04/07 01:57:49;;;;;;;3.45;1.23;;;;;;;;;;5050602;28;20032;-90
2024/04/07 02:00:14;;;;;;;7.82;1.48;;;;;;;;;;5052170;28;20047;-90
2024/04/07 02:02:40;;;;;;;4.32;1.30;;;;;;;;;;5044653;28;20033;-89
2024/04/07 02:05:05;;;;;;;5.93;1.40;;;;;;;;;;5048871;28;20020;-89
2024/04/07 02:07:34;;;;;;;6.85;1.50;;;;;;;;;;5047921;28;20061;-90
2024/04/07 02:10:00;;;;;;;4.78;1.20;;;;;;;;;;5050488;28;20032;-90
2024/04/07 02:12:25;;;;;;;3.22;1.45;;;;;;;;;;5062220;28;20384;-89
2024/04/07 02:14:51;;;;;;;6.15;1.30;;;;;;;;;;5046776;28;20043;-89
2024/04/07 02:17:16;;;;;;;4.45;1.45;;;;;;;;;;5046834;28;20382;-90
2024/04/07 02:19:42;;;;;;;5.47;1.30;;;;;;;;;;5050259;28;20393;-89
2024/04/07 02:22:08;;;;;;;7.75;1.30;;;;;;;;;;5046872;28;20025;-89
2024/04/07 02:24:33;;;;;;;3.83;1.20;;;;;;;;;;5048088;28;20024;-89
2024/04/07 02:26:59;;;;;;;4.07;1.05;;;;;;;;;;5045761;28;20055;-88
2024/04/07 02:29:24;;;;;;;4.65;1.10;;;;;;;;;;5042693;28;20021;-89
2024/04/07 02:31:50;;;;;;;3.05;1.42;;;;;;;;;;5050550;28;20861;-89
2024/04/07 02:34:16;;;;;;;3.90;1.10;;;;;;;;;;5066227;28;20078;-90
2024/04/07 02:36:41;;;;;;;4.63;0.90;;;;;;;;;;5050275;28;20070;-88
2024/04/07 02:39:09;;;;;;;2.67;0.90;;;;;;;;;;5046456;28;20048;-89
2024/04/07 02:41:36;;;;;;;2.53;0.82;;;;;;;;;;5043534;28;20037;-90
2024/04/07 02:44:03;;;;;;;2.28;0.52;;;;;;;;;;5068186;28;20490;-89
2024/04/07 02:49:12;;;;;;;3.65;0.80;;;;;;;;;;5068335;28;20039;-88
2024/04/07 02:51:38;;;;;;;4.03;0.80;;;;;;;;;;5064846;28;20028;-88
2024/04/07 02:54:03;;;;;;;2.08;0.65;;;;;;;;;;5048616;28;20033;-89
2024/04/07 02:56:28;;;;;;;4.07;1.00;;;;;;;;;;5050607;28;20036;-88
2024/04/07 02:58:54;;;;;;;2.22;0.70;;;;;;;;;;5046924;28;20025;-88
2024/04/07 03:01:19;;;;;;;4.03;0.75;;;;;;;;;;5066981;28;20467;-88
2024/04/07 03:03:45;;;;;;;3.03;0.93;;;;;;;;;;5066621;28;20059;-89
2024/04/07 03:06:12;;;;;;;1.73;0.57;;;;;;;;;;5049693;28;20039;-88
2024/04/07 03:08:37;;;;;;;3.85;0.70;;;;;;;;;;5052147;28;20028;-88
2024/04/07 03:11:04;;;;;;;2.78;0.68;;;;;;;;;;5049414;28;20497;-89
2024/04/07 03:13:30;;;;;;;2.53;0.60;;;;;;;;;;5049987;28;20081;-88
2024/04/07 03:15:55;;;;;;;3.00;1.20;;;;;;;;;;5064482;28;20025;-88
2024/04/07 03:18:21;;;;;;;2.50;0.60;;;;;;;;;;5051683;28;20056;-88
2024/04/07 03:20:47;;;;;;;1.83;1.05;;;;;;;;;;5049686;28;20096;-88
2024/04/07 03:23:13;;;;;;;2.58;0.60;;;;;;;;;;5047852;28;20053;-89
2024/04/07 03:25:39;;;;;;;2.00;0.45;;;;;;;;;;5047894;28;20098;-88
2024/04/07 03:28:05;;;;;;;1.75;0.50;;;;;;;;;;5045197;28;20041;-88
2024/04/07 03:30:31;;;;;;;2.17;0.50;;;;;;;;;;5049772;28;20381;-90
2024/04/07 03:32:56;;;;;;;1.98;0.52;;;;;;;;;;5048688;28;20024;-91
2024/04/07 03:35:22;;;;;;;1.60;0.50;;;;;;;;;;5050112;28;20028;-90
2024/04/07 03:37:47;;;;;;;2.30;0.60;;;;;;;;;;5048492;28;20032;-90
2024/04/07 03:40:13;;;;;;;0.80;0.38;;;;;;;;;;5043199;28;20020;-88
2024/04/07 03:42:38;;;;;;;1.35;0.45;;;;;;;;;;5049420;28;20103;-90
2024/04/07 03:45:04;;;;;;;2.50;0.40;;;;;;;;;;5048442;28;20056;-91
2024/04/07 03:47:30;;;;;;;1.42;0.32;;;;;;;;;;5049419;28;20029;-91
2024/04/07 03:49:55;;;;;;;1.67;0.60;;;;;;;;;;5067391;28;20028;-90
2024/04/07 03:52:21;;;;;;;1.80;0.73;;;;;;;;;;5049144;28;20040;-91
2024/04/07 03:54:48;;;;;;;2.42;0.50;;;;;;;;;;5043718;28;20068;-90
2024/04/07 03:57:13;;;;;;;1.58;0.40;;;;;;;;;;5042776;28;20032;-86
2024/04/07 03:59:39;;;;;;;0.82;0.40;;;;;;;;;;5062286;28;20025;-86
2024/04/07 04:02:04;;;;;;;1.00;0.35;;;;;;;;;;5065559;28;20401;-86
2024/04/07 04:04:31;;;;;;;1.15;0.40;;;;;;;;;;5043150;28;20052;-86
2024/04/07 04:06:56;;;;;;;1.30;0.40;;;;;;;;;;5066051;28;20111;-86
2024/04/07 04:09:22;;;;;;;1.73;0.40;;;;;;;;;;5047510;28;20124;-85
2024/04/07 04:11:47;;;;;;;1.80;0.40;;;;;;;;;;5063106;28;20060;-86
2024/04/07 04:14:13;;;;;;;1.70;0.35;;;;;;;;;;5064715;28;20037;-86
2024/04/07 04:16:38;;;;;;;0.70;0.40;;;;;;;;;;5064779;28;20028;-86
2024/04/07 04:19:04;;;;;;;2.35;0.50;;;;;;;;;;5065160;28;20039;-85
2024/04/07 04:21:29;;;;;;;1.10;0.30;;;;;;;;;;5065540;28;20032;-85
2024/04/07 04:23:55;;;;;;;0.98;0.30;;;;;;;;;;5064213;28;20028;-86
2024/04/07 04:26:20;;;;;;;0.50;0.30;;;;;;;;;;5063456;28;20050;-86
2024/04/07 04:28:46;;;;;;;1.73;0.40;;;;;;;;;;5046770;28;20092;-86
2024/04/07 04:31:11;;;;;;;1.00;0.38;;;;;;;;;;5063426;28;20029;-86
2024/04/07 04:33:37;;;;;;;1.75;0.40;;;;;;;;;;5047097;28;20028;-85
2024/04/07 04:36:15;;;;;;;2.15;0.52;;;;;;;;;;5064724;28;20040;-86
2024/04/07 04:38:41;;;;;;;2.78;0.50;;;;;;;;;;5045838;28;20111;-86
2024/04/07 04:41:07;;;;;;;0.68;0.30;;;;;;;;;;5048039;28;20115;-86
2024/04/07 04:43:32;;;;;;;1.67;0.47;;;;;;;;;;5048699;28;20120;-85
2024/04/07 04:46:12;;;;;;;2.55;0.40;;;;;;;;;;5064276;28;20025;-85
2024/04/07 04:48:38;;;;;;;0.47;0.30;;;;;;;;;;5041689;28;20021;-87
2024/04/07 04:51:04;;;;;;;2.50;0.40;;;;;;;;;;5044379;28;20117;-86
2024/04/07 04:53:30;;;;;;;1.02;0.30;;;;;;;;;;5046130;28;20036;-86
2024/04/07 04:56:02;;;;;;;2.03;0.75;;;;;;;;;;5064561;28;20028;-85
2024/04/07 04:58:29;;;;;;;1.45;0.30;;;;;;;;;;5045625;28;20115;-85
2024/04/07 05:00:55;;;;;;;2.60;0.32;;;;;;;;;;5062653;28;20134;-85
2024/04/07 05:03:21;;;;;;;0.68;0.20;;;;;;;;;;5063773;28;22194;-85
2024/04/07 05:05:47;;;;;;;0.52;0.30;;;;;;;;;;5067972;28;20036;-89
2024/04/07 05:08:13;;;;;;;0.82;0.30;;;;;;;;;;5048291;28;20036;-90
2024/04/07 05:10:39;;;;;;;0.32;0.20;;;;;;;;;;5046933;28;20380;-90
2024/04/07 05:13:05;;;;;;;1.33;0.50;;;;;;;;;;5046261;28;20042;-89
2024/04/07 05:15:30;;;;;;;1.85;0.38;;;;;;;;;;5052193;28;20044;-89
2024/04/07 05:17:56;;;;;;;2.92;0.30;;;;;;;;;;5047928;28;20427;-90
2024/04/07 05:20:21;;;;;;;2.58;0.38;;;;;;;;;;5050786;28;20036;-90
2024/04/07 05:22:46;;;;;;;2.17;0.45;;;;;;;;;;5045214;28;20033;-91
2024/04/07 05:25:12;;;;;;;1.30;0.35;;;;;;;;;;5053675;28;20020;-90
2024/04/07 05:27:37;;;;;;;1.45;0.20;;;;;;;;;;5047834;28;20024;-90
2024/04/07 05:30:03;;;;;;;1.00;0.30;;;;;;;;;;5046300;28;20028;-90
2024/04/07 05:32:29;;;;;;;1.80;0.38;;;;;;;;;;5044738;28;20077;-90
2024/04/07 05:34:55;;;;;;;2.05;0.40;;;;;;;;;;5067731;28;20375;-90
2024/04/07 05:37:20;;;;;;;3.03;1.20;;;;;;;;;;5053328;28;20021;-89
2024/04/07 05:39:50;;;;;;;1.73;0.43;;;;;;;;;;5044829;28;20028;-90
2024/04/07 05:42:17;;;;;;;2.00;0.30;;;;;;;;;;5048025;28;20032;-90
2024/04/07 05:44:42;;;;;;;0.90;0.22;;;;;;;;;;5048677;28;20021;-91
2024/04/07 05:47:09;;;;;;;2.80;0.38;;;;;;;;;;5046335;28;20092;-89
2024/04/07 05:49:35;;;;;;;2.30;0.40;;;;;;;;;;5041829;28;20024;-90
2024/04/07 05:52:01;;;;;;;1.38;0.28;;;;;;;;;;5043927;28;20040;-90
2024/04/07 05:54:29;;;;;;;3.30;0.40;;;;;;;;;;5047243;28;20378;-89
2024/04/07 05:56:55;;;;;;;2.63;0.47;;;;;;;;;;5047454;28;20036;-89
2024/04/07 05:59:20;;;;;;;2.22;0.60;;;;;;;;;;5047498;28;20051;-90
2024/04/07 06:01:46;;;;;;;2.55;0.47;;;;;;;;;;5044424;28;20398;-89
2024/04/07 06:04:11;;;;;;;1.58;0.45;;;;;;;;;;5038855;28;20379;-90
2024/04/07 06:06:37;;;;;;;1.35;0.40;;;;;;;;;;5065065;28;20020;-91
2024/04/07 06:09:03;;;;;;;3.10;1.30;;;;;;;;;;5049900;28;20488;-90
2024/04/07 06:11:29;;;;;;;1.42;0.50;;;;;;;;;;5047292;28;20137;-90
2024/04/07 06:13:55;;;;;;;2.10;0.50;;;;;;;;;;5066541;28;20476;-90
2024/04/07 06:16:20;;;;;;;1.83;0.50;;;;;;;;;;5047596;28;20103;-85
2024/04/07 06:18:51;;;;;;;1.40;0.32;;;;;;;;;;5066439;28;20497;-85
2024/04/07 06:21:17;;;;;;;3.53;0.80;;;;;;;;;;5069281;28;20043;-85
2024/04/07 06:23:43;;;;;;;1.20;0.40;;;;;;;;;;5064799;28;20035;-86
2024/04/07 06:26:08;;;;;;;3.38;0.40;;;;;;;;;;5064682;28;20017;-85
2024/04/07 06:28:34;;;;;;;1.33;0.40;;;;;;;;;;5051958;28;20037;-85
2024/04/07 06:31:00;;;;;;;1.67;0.43;;;;;;;;;;5064563;28;20502;-85
2024/04/07 06:33:26;;;;;;;1.33;0.50;;;;;;;;;;5051409;28;20020;-85
2024/04/07 06:35:55;;;;;;;3.53;0.50;;;;;;;;;;5069511;28;20055;-85
2024/04/07 06:38:20;;;;;;;4.50;0.40;;;;;;;;;;5066922;28;20028;-85
2024/04/07 06:40:46;;;;;;;2.58;0.50;;;;;;;;;;5068106;28;22161;-85
2024/04/07 06:43:11;;;;;;;2.28;0.40;;;;;;;;;;5049427;28;20033;-85
2024/04/07 06:45:36;;;;;;;1.95;0.50;;;;;;;;;;5050510;28;20490;-85
2024/04/07 06:48:02;;;;;;;0.85;0.30;;;;;;;;;;5063888;28;20147;-85
2024/04/07 06:50:27;;;;;;;1.20;0.40;;;;;;;;;;5068113;28;20034;-85
2024/04/07 06:52:53;;;;;;;2.42;0.60;;;;;;;;;;5049893;28;20041;-85
2024/04/07 06:55:19;;;;;;;1.92;0.47;;;;;;;;;;5067408;28;20036;-85
2024/04/07 06:57:44;;;;;;;2.28;0.50;;;;;;;;;;5070169;28;20033;-85
2024/04/07 07:00:12;;;;;;;1.70;0.32;;;;;;;;;;5061803;28;20029;-86
2024/04/07 07:02:37;;;;;;;1.58;0.60;;;;;;;;;;5068304;28;20033;-84
2024/04/07 07:05:03;;;;;;;2.92;0.70;;;;;;;;;;5046287;28;20094;-85
2024/04/07 07:07:28;;;;;;;1.05;0.60;;;;;;;;;;5047443;28;20027;-85
2024/04/07 07:09:54;;;;;;;2.97;0.63;;;;;;;;;;5062720;28;20033;-85
2024/04/07 07:12:19;;;;;;;1.95;0.55;;;;;;;;;;5064408;28;20035;-85
2024/04/07 07:14:45;;;;;;;1.35;0.40;;;;;;;;;;5047212;28;20107;-85
2024/04/07 07:17:10;;;;;;;1.58;0.45;;;;;;;;;;5071289;28;20488;-85
2024/04/07 07:19:35;;;;;;;1.80;0.60;;;;;;;;;;5069099;28;20032;-85
2024/04/07 07:22:01;;;;;;;1.92;0.60;;;;;;;;;;5065001;28;20028;-85
2024/04/07 07:24:26;;;;;;;2.55;0.60;;;;;;;;;;5063222;28;20025;-85
2024/04/07 07:26:52;;;;;;;1.50;0.50;;;;;;;;;;5052705;28;20032;-90
2024/04/07 07:29:17;;;;;;;1.50;0.43;;;;;;;;;;5053283;28;20418;-89
2024/04/07 07:31:42;;;;;;;1.95;0.50;;;;;;;;;;5048134;28;20024;-92
2024/04/07 07:34:08;;;;;;;1.80;0.50;;;;;;;;;;5048594;28;20032;-89
2024/04/07 07:36:34;;;;;;;2.08;0.80;;;;;;;;;;5069153;28;20028;-89
2024/04/07 07:38:59;;;;;;;2.80;0.93;;;;;;;;;;5070497;28;20028;-89
2024/04/07 07:41:25;;;;;;;2.47;0.60;;;;;;;;;;5052496;28;20442;-90
2024/04/07 07:43:50;;;;;;;2.65;0.68;;;;;;;;;;5052543;28;20032;-88
2024/04/07 07:46:16;;;;;;;3.20;1.33;;;;;;;;;;5065286;28;20024;-88
2024/04/07 07:48:41;;;;;;;4.00;0.93;;;;;;;;;;5049627;28;20043;-88
2024/04/07 07:51:11;;;;;;;3.30;0.80;;;;;;;;;;5056940;28;20059;-88
2024/04/07 07:53:37;;;;;;;2.80;0.65;;;;;;;;;;5053365;28;20491;-87
2024/04/07 07:56:07;;;;;;;4.03;0.70;;;;;;;;;;5068220;28;20059;-86
2024/04/07 07:58:37;;;;;;;2.97;0.90;;;;;;;;;;5060357;28;20166;-89
2024/04/07 08:01:03;;;;;;;3.53;0.70;;;;;;;;;;5048673;28;20032;-87
2024/04/07 08:03:29;;;;;;;3.60;0.75;;;;;;;;;;5042643;28;20082;-88
2024/04/07 08:05:55;;;;;;;3.88;0.75;;;;;;;;;;5054916;28;20016;-87
2024/04/07 08:08:21;;;;;;;4.13;0.93;;;;;;;;;;5070683;28;20029;-86
2024/04/07 08:10:47;;;;;;;2.17;0.60;;;;;;;;;;5072824;28;20032;-86
2024/04/07 08:13:13;;;;;;;2.70;0.80;;;;;;;;;;5048731;28;20123;-88
2024/04/07 08:15:41;;;;;;;3.63;0.90;;;;;;;;;;5052839;28;20029;-85
2024/04/07 08:18:06;;;;;;;1.45;0.70;;;;;;;;;;5073710;28;20033;-88
2024/04/07 08:20:32;;;;;;;2.78;0.82;;;;;;;;;;5051202;28;20025;-86
2024/04/07 08:22:57;;;;;;;2.60;0.80;;;;;;;;;;5067399;28;20226;-88
2024/04/07 08:25:22;;;;;;;3.70;0.70;;;;;;;;;;5057305;28;20100;-88
2024/04/07 08:27:48;;;;;;;3.92;0.77;;;;;;;;;;5072784;28;20024;-88
2024/04/07 08:30:13;;;;;;;2.50;0.80;;;;;;;;;;5053049;28;20024;-87
2024/04/07 08:32:39;;;;;;;2.72;0.80;;;;;;;;;;5064255;28;20103;-87
2024/04/07 08:35:04;;;;;;;4.88;0.95;;;;;;;;;;5067704;28;20021;-87
2024/04/07 08:37:30;;;;;;;2.38;0.80;;;;;;;;;;5062061;28;20446;-88
2024/04/07 08:39:55;;;;;;;4.15;0.82;;;;;;;;;;5041801;28;20082;-88
2024/04/07 08:42:21;;;;;;;4.65;0.90;;;;;;;;;;5055621;28;20064;-88
2024/04/07 08:44:47;;;;;;;3.53;0.80;;;;;;;;;;5043743;28;20023;-88
2024/04/07 08:47:16;;;;;;;1.67;0.77;;;;;;;;;;5051388;28;20035;-90
2024/04/07 08:49:42;;;;;;;2.03;0.75;;;;;;;;;;5073894;28;20025;-90
2024/04/07 08:52:09;;;;;;;2.40;0.85;;;;;;;;;;5046647;28;20029;-87
2024/04/07 08:54:35;;;;;;;3.63;0.80;;;;;;;;;;5051389;28;20474;-86
2024/04/07 08:57:08;;;;;;;3.45;1.55;;;;;;;;;;5065240;28;20040;-87
2024/04/07 08:59:34;;;;;;;3.83;0.80;;;;;;;;;;5043080;28;20020;-87
2024/04/07 09:02:03;;;;;;;2.90;0.90;;;;;;;;;;5057980;28;20029;-88
2024/04/07 09:04:32;;;;;;;5.50;0.98;;;;;;;;;;5067093;28;20032;-90
2024/04/07 09:06:59;;;;;;;3.17;1.10;;;;;;;;;;5054843;28;20158;-90
2024/04/07 09:09:24;;;;;;;3.22;0.88;;;;;;;;;;5050112;28;20020;-88
2024/04/07 09:11:51;;;;;;;4.80;0.80;;;;;;;;;;5047717;28;20112;-87
2024/04/07 09:14:17;;;;;;;3.10;0.90;;;;;;;;;;5052089;28;20062;-87
2024/04/07 09:16:43;;;;;;;2.60;0.88;;;;;;;;;;5071383;28;20028;-87
2024/04/07 09:19:10;;;;;;;2.42;0.80;;;;;;;;;;5068033;28;20035;-88
2024/04/07 09:21:36;;;;;;;3.90;0.95;;;;;;;;;;5066821;28;20024;-87
2024/04/07 09:24:02;;;;;;;3.67;0.80;;;;;;;;;;5063284;28;20029;-88
2024/04/07 09:26:27;;;;;;;3.25;0.80;;;;;;;;;;5064432;28;20033;-89
2024/04/07 09:28:53;;;;;;;1.65;0.70;;;;;;;;;;5054075;28;20119;-88
2024/04/07 09:31:21;;;;;;;3.22;0.60;;;;;;;;;;5054335;28;20418;-86
2024/04/07 09:33:47;;;;;;;3.22;0.73;;;;;;;;;;5060820;28;20036;-86
2024/04/07 09:36:15;;;;;;;3.67;0.80;;;;;;;;;;5068985;28;20112;-87
2024/04/07 09:38:44;;;;;;;2.63;0.65;;;;;;;;;;5057649;28;20538;-88
2024/04/07 09:41:10;;;;;;;3.40;0.93;;;;;;;;;;5069270;28;20052;-87
2024/04/07 09:43:39;;;;;;;1.58;0.47;;;;;;;;;;5042289;28;20024;-87
2024/04/07 09:46:05;;;;;;;3.42;0.60;;;;;;;;;;5041920;28;20075;-88
2024/04/07 09:48:33;;;;;;;4.05;0.98;;;;;;;;;;5042596;28;20031;-87
2024/04/07 09:51:04;;;;;;;3.33;0.73;;;;;;;;;;5060857;28;20115;-88
2024/04/07 09:53:47;;;;;;;3.88;0.70;;;;;;;;;;5061831;28;20056;-90
2024/04/07 09:56:14;;;;;;;;;;;;;;;;;;5064098;28;20033;-89
2024/04/07 09:58:40;;;;;;;5.25;0.70;;;;;;;;;;5060576;28;19912;-88
2024/04/07 10:01:06;;;;;;;1.98;0.60;;;;;;;;;;5050868;28;20060;-87
2024/04/07 10:03:32;;;;;;;1.85;0.65;;;;;;;;;;5058327;28;20033;-87
2024/04/07 10:05:59;;;;;;;1.67;0.60;;;;;;;;;;5065272;28;20017;-86
2024/04/07 10:08:29;;;;;;;1.50;0.55;;;;;;;;;;5053318;28;20093;-86
2024/04/07 10:10:54;;;;;;;2.97;0.63;;;;;;;;;;5050757;28;20033;-86
2024/04/07 10:13:23;;;;;;;2.20;0.60;;;;;;;;;;5066964;28;20081;-86
2024/04/07 10:15:51;;;;;;;1.65;0.40;;;;;;;;;;5065796;28;20025;-86
2024/04/07 10:18:18;;;;;;;3.03;0.70;;;;;;;;;;5060319;28;20060;-86
2024/04/07 10:20:44;;;;;;;4.82;0.80;;;;;;;;;;5067020;28;20028;-86
2024/04/07 10:23:13;;;;;;;1.25;0.57;;;;;;;;;;5047975;28;20029;-87
2024/04/07 10:25:46;;;;;;;3.03;0.52;;;;;;;;;;5049049;28;20037;-87
2024/04/07 10:28:11;;;;;;;2.83;0.68;;;;;;;;;;5046169;28;20123;-88
2024/04/07 10:30:37;;;;;;;2.17;0.60;;;;;;;;;;5065744;28;20460;-87
2024/04/07 10:33:03;;;;;;;3.53;0.60;;;;;;;;;;5063668;28;20046;-87
2024/04/07 10:35:28;;;;;;;4.70;0.80;;;;;;;;;;5049419;28;20021;-87
2024/04/07 10:37:54;;;;;;;2.92;0.63;;;;;;;;;;5038159;28;20422;-87
2024/04/07 10:40:19;;;;;;;3.05;0.60;;;;;;;;;;5052076;28;20024;-86
2024/04/07 10:42:44;;;;;;;3.53;0.65;;;;;;;;;;5038808;28;20090;-88
2024/04/07 10:45:12;;;;;;;2.72;0.60;;;;;;;;;;5059761;28;20094;-86
2024/04/07 10:47:37;;;;;;;2.30;0.50;;;;;;;;;;5059274;28;20071;-82
2024/04/07 10:50:04;;;;;;;1.90;0.55;;;;;;;;;;5060674;28;20666;-82
2024/04/07 10:52:31;;;;;;;2.00;0.63;;;;;;;;;;5056358;28;20032;-82
2024/04/07 10:54:57;;;;;;;2.40;0.65;;;;;;;;;;5042939;28;20029;-82
2024/04/07 10:57:23;;;;;;;2.83;0.85;;;;;;;;;;5064635;28;20161;-81
2024/04/07 10:59:49;;;;;;;2.58;0.57;;;;;;;;;;5046516;28;20137;-81
2024/04/07 11:02:14;;;;;;;1.85;0.70;;;;;;;;;;5057541;28;20063;-81
2024/04/07 11:04:41;;;;;;;2.85;0.52;;;;;;;;;;5042243;28;20060;-80
2024/04/07 11:07:06;;;;;;;2.63;0.55;;;;;;;;;;5034899;28;20017;-81
2024/04/07 11:09:32;;;;;;;0.88;0.50;;;;;;;;;;5060267;28;20031;-80
2024/04/07 11:11:59;;;;;;;2.03;0.60;;;;;;;;;;5044835;28;20024;-80
2024/04/07 11:14:29;;;;;;;1.88;0.60;;;;;;;;;;5039369;28;20036;-81
2024/04/07 11:16:56;;;;;;;3.40;0.70;;;;;;;;;;5059329;28;20032;-81
2024/04/07 11:19:23;;;;;;;2.60;0.57;;;;;;;;;;5042270;28;20124;-81
2024/04/07 11:21:49;;;;;;;3.00;0.50;;;;;;;;;;5044338;28;20405;-81
2024/04/07 11:24:15;;;;;;;3.10;0.63;;;;;;;;;;5033809;28;20124;-81
2024/04/07 11:26:40;;;;;;;1.55;0.52;;;;;;;;;;5040258;28;20107;-80
2024/04/07 11:29:06;;;;;;;3.22;0.38;;;;;;;;;;5040203;28;20033;-81
2024/04/07 11:31:31;;;;;;;3.22;0.75;;;;;;;;;;5045157;28;20083;-81
2024/04/07 11:33:57;;;;;;;2.90;0.60;;;;;;;;;;5044793;28;20120;-80
2024/04/07 11:36:23;;;;;;;2.40;0.93;;;;;;;;;;5061444;28;20033;-80
2024/04/07 11:38:48;;;;;;;1.83;0.50;;;;;;;;;;5062343;28;20126;-81
2024/04/07 11:41:14;;;;;;;1.30;0.40;;;;;;;;;;5060554;28;20051;-80
2024/04/07 11:43:39;;;;;;;3.10;0.70;;;;;;;;;;5065047;28;20016;-81
2024/04/07 11:46:05;;;;;;;2.03;0.60;;;;;;;;;;5062836;28;20040;-80
2024/04/07 11:48:30;;;;;;;2.70;0.60;;;;;;;;;;5048141;28;20028;-81
2024/04/07 11:50:56;;;;;;;2.53;0.45;;;;;;;;;;5040555;28;20040;-81
2024/04/07 11:53:21;;;;;;;2.08;0.50;;;;;;;;;;5038523;28;20027;-81
2024/04/07 11:55:46;;;;;;;2.28;0.60;;;;;;;;;;5053794;28;20028;-80
2024/04/07 11:58:12;;;;;;;2.83;0.70;;;;;;;;;;5022258;28;20760;-80
2024/04/07 12:00:37;;;;;;;2.42;0.70;;;;;;;;;;5056321;28;20691;-80
2024/04/07 12:03:03;;;;;;;1.83;0.43;;;;;;;;;;5032395;28;20025;-80
2024/04/07 12:05:29;;;;;;;2.63;0.57;;;;;;;;;;5048139;28;20020;-82
2024/04/07 12:07:54;;;;;;;2.92;0.60;;;;;;;;;;5056184;28;20051;-82
2024/04/07 12:10:19;;;;;;;2.30;0.50;;;;;;;;;;5038812;28;20039;-82
2024/04/07 12:12:45;;;;;;;2.72;0.50;;;;;;;;;;5051933;28;20363;-82
2024/04/07 12:15:10;;;;;;;1.10;0.43;;;;;;;;;;5039562;28;20032;-82
2024/04/07 12:17:36;;;;;;;1.50;0.35;;;;;;;;;;5049281;28;20029;-82
2024/04/07 12:20:02;;;;;;;2.85;0.60;;;;;;;;;;5036807;28;20116;-82
2024/04/07 12:22:37;;;;;;;2.58;0.60;;;;;;;;;;5057703;28;20032;-82
2024/04/07 12:25:06;;;;;;;0.85;0.35;;;;;;;;;;5036614;28;20314;-82
2024/04/07 12:27:32;;;;;;;2.00;0.50;;;;;;;;;;5043946;28;20349;-82
2024/04/07 12:29:57;;;;;;;2.88;0.47;;;;;;;;;;5047021;28;20529;-82
2024/04/07 12:32:23;;;;;;;2.15;0.68;;;;;;;;;;5055770;28;20035;-81
2024/04/07 12:34:49;;;;;;;3.08;0.40;;;;;;;;;;5041610;28;20028;-81
2024/04/07 12:37:15;;;;;;;2.10;0.50;;;;;;;;;;5057114;28;20349;-81
2024/04/07 12:39:40;;;;;;;2.03;0.70;;;;;;;;;;5044221;28;20025;-81
2024/04/07 12:42:06;;;;;;;1.83;0.55;;;;;;;;;;5037234;28;20035;-81
2024/04/07 12:44:31;;;;;;;3.17;0.68;;;;;;;;;;5058120;28;20023;-81
2024/04/07 12:46:57;;;;;;;1.52;0.60;;;;;;;;;;5022410;28;20033;-81
2024/04/07 12:49:22;;;;;;;1.38;0.40;;;;;;;;;;5049555;28;20038;-81
2024/04/07 12:51:48;;;;;;;1.65;0.50;;;;;;;;;;5048621;28;20387;-81
2024/04/07 12:54:14;;;;;;;1.20;0.50;;;;;;;;;;5052493;28;20182;-81
2024/04/07 12:56:40;;;;;;;1.13;0.45;;;;;;;;;;5042380;28;20024;-81
2024/04/07 12:59:06;;;;;;;1.27;0.52;;;;;;;;;;5038262;28;20149;-82
2024/04/07 13:01:31;;;;;;;1.88;0.40;;;;;;;;;;5032555;28;20490;-82
2024/04/07 13:03:56;;;;;;;1.85;0.40;;;;;;;;;;5039900;28;20033;-81
2024/04/07 13:06:22;;;;;;;2.17;0.50;;;;;;;;;;5048872;28;20031;-81
2024/04/07 13:08:47;;;;;;;2.13;0.40;;;;;;;;;;5052303;28;20107;-81
2024/04/07 13:11:13;;;;;;;1.70;0.47;;;;;;;;;;5038914;28;20070;-81
2024/04/07 13:13:41;;;;;;;1.02;0.40;;;;;;;;;;5028907;28;20078;-80
2024/04/07 13:16:07;;;;;;;1.60;0.38;;;;;;;;;;5041919;28;20036;-80
2024/04/07 13:18:33;;;;;;;1.67;0.50;;;;;;;;;;5040588;28;20442;-80
2024/04/07 13:20:58;;;;;;;1.58;0.40;;;;;;;;;;5050782;28;20027;-79
2024/04/07 13:23:24;;;;;;;1.77;0.32;;;;;;;;;;5054313;28;20550;-80
2024/04/07 13:25:49;;;;;;;0.85;0.40;;;;;;;;;;5022244;28;20079;-80
2024/04/07 13:28:15;;;;;;;2.95;0.95;;;;;;;;;;5027383;28;20416;-79
2024/04/07 13:30:40;;;;;;;3.58;0.50;;;;;;;;;;5034391;28;20036;-80
2024/04/07 13:33:06;;;;;;;1.67;0.50;;;;;;;;;;5022767;28;20025;-79
2024/04/07 13:35:32;;;;;;;2.28;0.50;;;;;;;;;;5035798;28;20036;-80
2024/04/07 13:37:58;;;;;;;1.33;0.40;;;;;;;;;;5032023;28;20031;-80
2024/04/07 13:40:23;;;;;;;1.05;0.35;;;;;;;;;;5049413;28;20024;-80
2024/04/07 13:42:49;;;;;;;1.02;0.30;;;;;;;;;;5039964;28;20720;-80
2024/04/07 13:45:15;;;;;;;1.30;0.40;;;;;;;;;;5032070;28;20115;-80
2024/04/07 13:47:40;;;;;;;0.50;0.38;;;;;;;;;;5054501;28;20029;-80
2024/04/07 13:50:09;;;;;;;0.68;0.38;;;;;;;;;;5038528;28;20526;-80
2024/04/07 13:52:34;;;;;;;1.40;0.40;;;;;;;;;;5048916;28;20032;-79
2024/04/07 13:55:01;;;;;;;1.63;0.50;;;;;;;;;;5046002;28;20029;-80
2024/04/07 13:57:26;;;;;;;1.70;0.30;;;;;;;;;;5051838;28;20032;-80
2024/04/07 13:59:51;;;;;;;1.42;0.40;;;;;;;;;;5044796;28;20264;-80
2024/04/07 14:02:17;;;;;;;0.85;0.30;;;;;;;;;;5035105;28;20048;-80
2024/04/07 14:04:42;;;;;;;2.60;0.60;;;;;;;;;;5050927;28;20454;-79
2024/04/07 14:07:07;;;;;;;1.40;0.32;;;;;;;;;;5042452;28;20055;-78
2024/04/07 14:09:33;;;;;;;1.63;0.40;;;;;;;;;;5045296;28;20028;-78
2024/04/07 14:11:58;;;;;;;2.30;0.60;;;;;;;;;;5030147;28;20031;-79
2024/04/07 14:14:24;;;;;;;0.95;0.52;;;;;;;;;;5028534;28;20029;-81
2024/04/07 14:16:50;;;;;;;2.10;0.50;;;;;;;;;;5053241;28;20514;-82
2024/04/07 14:19:15;;;;;;;2.83;0.60;;;;;;;;;;5010496;28;20129;-81
2024/04/07 14:21:40;;;;;;;1.00;0.32;;;;;;;;;;5045088;28;20097;-82
2024/04/07 14:24:06;;;;;;;1.30;0.45;;;;;;;;;;5038688;28;20025;-81
2024/04/07 14:26:32;;;;;;;3.08;0.55;;;;;;;;;;5023190;28;20119;-79
2024/04/07 14:28:57;;;;;;;0.88;0.40;;;;;;;;;;5046552;28;20558;-80
2024/04/07 14:31:23;;;;;;;3.35;0.70;;;;;;;;;;5031368;28;20070;-79
2024/04/07 14:33:48;;;;;;;1.13;0.40;;;;;;;;;;5031250;28;20697;-79
2024/04/07 14:36:14;;;;;;;0.75;0.30;;;;;;;;;;5034287;28;20024;-80
2024/04/07 14:38:39;;;;;;;1.17;0.30;;;;;;;;;;5031496;28;20116;-79